createdAt,value
2023-01-15T00:00:10.286Z,99201.84
2023-01-15T00:02:40.542Z,99203.00
2023-01-15T00:05:10.610Z,99200.91
2023-01-15T00:07:40.691Z,99199.56
2023-01-15T00:10:11.816Z,99204.25
2023-01-15T00:12:41.825Z,99194.66
2023-01-15T00:15:14.397Z,99189.97
2023-01-15T00:17:44.596Z,99186.28
2023-01-15T00:20:14.652Z,99199.09
2023-01-15T00:22:44.642Z,99196.06
2023-01-15T00:25:33.629Z,99196.31
2023-01-15T00:28:03.946Z,99196.31
2023-01-15T00:30:33.985Z,99191.72
2023-01-15T00:33:04.083Z,99189.56
2023-01-15T00:35:34.142Z,99177.47
2023-01-15T00:38:04.146Z,99166.09
2023-01-15T00:40:34.127Z,99159.31
2023-01-15T00:43:02.562Z,99156.19
2023-01-15T00:45:30.975Z,99148.94
2023-01-15T00:47:59.457Z,99151.94
2023-01-15T00:50:27.901Z,99137.31
2023-01-15T00:52:56.304Z,99135.59
2023-01-15T00:55:25.825Z,99143.75
2023-01-15T00:57:54.918Z,99145.59
2023-01-15T01:00:22.182Z,99144.13
2023-01-15T01:02:50.462Z,99135.34
2023-01-15T01:05:18.950Z,99114.38
2023-01-15T01:07:47.569Z,99130.84
2023-01-15T01:10:17.537Z,99129.00
2023-01-15T01:12:51.582Z,99122.44
2023-01-15T01:15:23.685Z,99118.31
2023-01-15T01:17:53.440Z,99119.69
2023-01-15T01:20:23.086Z,99105.41
2023-01-15T01:22:53.652Z,99117.94
2023-01-15T01:25:23.879Z,99111.00
2023-01-15T01:27:53.615Z,99116.56
2023-01-15T01:30:23.460Z,99131.38
2023-01-15T01:32:53.466Z,99140.72
2023-01-15T01:35:23.272Z,99128.75
2023-01-15T01:37:53.305Z,99126.81
2023-01-15T01:40:23.465Z,99127.81
2023-01-15T01:42:53.432Z,99110.19
2023-01-15T01:45:33.919Z,99104.00
2023-01-15T01:48:08.021Z,99100.66
2023-01-15T01:50:41.893Z,99103.28
2023-01-15T01:53:29.658Z,99108.25
2023-01-15T01:56:01.401Z,99112.84
2023-01-15T01:58:35.917Z,99113.47
2023-01-15T02:01:06.856Z,99107.00
2023-01-15T02:03:39.186Z,99111.81
2023-01-15T02:06:15.674Z,99109.66
2023-01-15T02:08:46.065Z,99106.31
2023-01-15T02:11:24.022Z,99110.06
2023-01-15T02:13:58.640Z,99106.00
2023-01-15T02:16:47.350Z,99093.34
2023-01-15T02:19:51.213Z,99090.34
2023-01-15T02:23:00.761Z,99092.66
2023-01-15T02:26:26.761Z,99103.47
2023-01-15T02:29:02.589Z,99111.53
2023-01-15T02:31:43.639Z,99100.06
2023-01-15T02:34:44.630Z,99092.19
2023-01-15T02:37:28.186Z,99098.53
2023-01-15T02:40:05.491Z,99094.16
2023-01-15T02:42:42.683Z,99085.66
2023-01-15T02:45:30.811Z,99075.63
2023-01-15T02:48:14.978Z,99072.19
2023-01-15T02:51:02.085Z,99081.84
2023-01-15T02:53:38.641Z,99076.78
2023-01-15T02:56:19.343Z,99072.88
2023-01-15T02:59:00.790Z,99077.03
2023-01-15T03:01:44.806Z,99081.75
2023-01-15T03:04:41.695Z,99068.63
2023-01-15T03:07:29.538Z,99074.59
2023-01-15T03:09:59.952Z,99078.53
2023-01-15T03:12:54.896Z,99068.16
2023-01-15T03:16:00.645Z,99065.28
2023-01-15T03:18:50.571Z,99077.13
2023-01-15T03:21:53.993Z,99071.16
2023-01-15T03:24:54.682Z,99066.22
2023-01-15T03:27:25.383Z,99067.69
2023-01-15T03:30:17.152Z,99065.53
2023-01-15T03:32:48.897Z,99067.03
2023-01-15T03:35:57.614Z,99050.69
2023-01-15T03:38:35.498Z,99054.38
2023-01-15T03:41:24.204Z,99064.03
2023-01-15T03:44:39.347Z,99066.66
2023-01-15T03:47:54.035Z,99074.16
2023-01-15T03:50:47.923Z,99073.09
2023-01-15T03:53:52.796Z,99091.31
2023-01-15T03:56:43.035Z,99076.78
2023-01-15T03:59:30.901Z,99084.50
2023-01-15T04:02:09.581Z,99082.09
2023-01-15T04:04:42.308Z,99080.25
2023-01-15T04:07:13.638Z,99077.81
2023-01-15T04:09:44.009Z,99078.53
2023-01-15T04:12:18.368Z,99072.44
2023-01-15T04:14:48.447Z,99080.25
2023-01-15T04:17:18.620Z,99081.84
2023-01-15T04:19:48.689Z,99092.56
2023-01-15T04:22:16.765Z,99154.44
2023-01-15T04:24:44.014Z,99161.31
2023-01-15T04:27:14.232Z,99159.88
2023-01-15T04:29:44.206Z,99173.66
2023-01-15T04:32:14.540Z,99171.50
2023-01-15T04:34:44.620Z,99170.72
2023-01-15T04:37:17.716Z,99185.97
2023-01-15T04:39:47.710Z,99187.09
2023-01-15T04:42:36.010Z,99194.66
2023-01-15T04:45:07.141Z,99216.09
2023-01-15T04:47:36.538Z,99224.09
2023-01-15T04:50:07.625Z,99232.72
2023-01-15T04:52:38.702Z,99231.31
2023-01-15T04:55:08.553Z,99235.00
2023-01-15T04:57:39.500Z,99229.50
2023-01-15T05:00:10.198Z,99228.41
2023-01-15T05:02:39.417Z,99224.38
2023-01-15T05:05:08.693Z,99236.84
2023-01-15T05:07:36.447Z,99242.66
2023-01-15T05:10:05.256Z,99252.69
2023-01-15T05:12:33.098Z,99240.25
2023-01-15T05:15:01.581Z,99237.47
2023-01-15T05:17:31.825Z,99237.16
2023-01-15T05:20:01.560Z,99240.38
2023-01-15T05:22:29.836Z,99237.47
2023-01-15T05:24:58.277Z,99243.94
2023-01-15T05:27:26.708Z,99239.72
2023-01-15T05:29:56.713Z,99245.88
2023-01-15T05:32:26.847Z,99229.69
2023-01-15T05:34:55.083Z,99245.03
2023-01-15T05:37:23.411Z,99255.56
2023-01-15T05:39:52.000Z,99255.59
2023-01-15T05:42:20.657Z,99246.19
2023-01-15T05:44:48.838Z,99229.50
2023-01-15T05:47:18.855Z,99232.59
2023-01-15T05:49:48.632Z,99230.66
2023-01-15T05:52:16.367Z,99234.53
2023-01-15T05:54:44.400Z,99245.38
2023-01-15T05:57:13.395Z,99239.41
2023-01-15T05:59:43.532Z,99238.72
2023-01-15T06:02:13.554Z,99241.97
2023-01-15T06:04:43.537Z,99228.41
2023-01-15T06:07:13.543Z,99240.19
2023-01-15T06:09:44.034Z,99242.75
2023-01-15T06:12:18.047Z,99235.34
2023-01-15T06:14:48.099Z,99228.03
2023-01-15T06:17:18.192Z,99224.50
2023-01-15T06:19:48.223Z,99235.78
2023-01-15T06:22:18.431Z,99222.72
2023-01-15T06:24:48.627Z,99232.59
2023-01-15T06:27:18.704Z,99238.72
2023-01-15T06:29:48.665Z,99227.75
2023-01-15T06:32:18.701Z,99226.63
2023-01-15T06:34:49.917Z,99232.25
2023-01-15T06:37:19.782Z,99252.47
2023-01-15T06:39:49.838Z,99247.94
2023-01-15T06:42:38.630Z,99245.19
2023-01-15T06:45:30.995Z,99251.00
2023-01-15T06:48:01.608Z,99248.72
2023-01-15T06:50:31.236Z,99249.69
2023-01-15T06:53:01.225Z,99260.03
2023-01-15T06:55:31.235Z,99249.22
2023-01-15T06:58:04.306Z,99239.38
2023-01-15T07:00:33.995Z,99255.38
2023-01-15T07:03:05.648Z,99251.34
2023-01-15T07:05:34.560Z,99250.03
2023-01-15T07:08:05.142Z,99249.41
2023-01-15T07:10:36.122Z,99254.72
2023-01-15T07:13:05.305Z,99258.13
2023-01-15T07:15:35.477Z,99266.00
2023-01-15T07:18:05.797Z,99272.28
2023-01-15T07:20:35.720Z,99277.50
2023-01-15T07:23:05.707Z,99277.66
2023-01-15T07:25:35.761Z,99272.19
2023-01-15T07:28:06.018Z,99266.66
2023-01-15T07:30:36.014Z,99265.19
2023-01-15T07:33:06.080Z,99271.16
2023-01-15T07:35:36.936Z,99269.53
2023-01-15T07:38:06.384Z,99282.31
2023-01-15T07:40:36.955Z,99287.78
2023-01-15T07:43:25.543Z,99275.19
2023-01-15T07:46:13.407Z,99269.53
2023-01-15T07:49:01.800Z,99281.69
2023-01-15T07:51:31.807Z,99291.88
2023-01-15T07:54:01.852Z,99289.59
2023-01-15T07:56:31.965Z,99303.81
2023-01-15T07:59:02.020Z,99301.41
2023-01-15T08:01:30.430Z,99301.56
2023-01-15T08:03:58.888Z,99311.88
2023-01-15T08:06:27.293Z,99307.38
2023-01-15T08:08:55.699Z,99315.97
2023-01-15T08:11:42.812Z,99308.47
2023-01-15T08:14:31.368Z,99304.78
2023-01-15T08:17:01.894Z,99278.44
2023-01-15T08:19:31.746Z,99276.06
2023-01-15T08:22:01.941Z,99284.41
2023-01-15T08:24:32.051Z,99290.31
2023-01-15T08:27:02.088Z,99296.78
2023-01-15T08:29:32.293Z,99289.34
2023-01-15T08:32:03.405Z,99287.88
2023-01-15T08:34:32.711Z,99298.28
2023-01-15T08:37:02.750Z,99294.88
2023-01-15T08:39:32.820Z,99297.94
2023-01-15T08:42:02.921Z,99291.13
2023-01-15T08:44:33.242Z,99292.41
2023-01-15T08:47:03.387Z,99300.84
2023-01-15T08:49:33.761Z,99296.44
2023-01-15T08:52:03.726Z,99307.59
2023-01-15T08:54:33.821Z,99296.09
2023-01-15T08:57:04.128Z,99294.53
2023-01-15T08:59:34.075Z,99301.00
2023-01-15T09:02:04.244Z,99299.56
2023-01-15T09:04:34.351Z,99303.91
2023-01-15T09:07:04.116Z,99313.13
2023-01-15T09:09:35.111Z,99320.84
2023-01-15T09:12:05.648Z,99327.31
2023-01-15T09:14:57.415Z,99333.13
2023-01-15T09:17:24.589Z,99317.00
2023-01-15T09:19:52.764Z,99318.94
2023-01-15T09:22:21.181Z,99321.19
2023-01-15T09:24:49.692Z,99324.91
2023-01-15T09:27:18.472Z,99331.25
2023-01-15T09:29:46.043Z,99335.31
2023-01-15T09:32:13.198Z,99329.50
2023-01-15T09:34:41.586Z,99326.88
2023-01-15T09:37:10.410Z,99340.63
2023-01-15T09:39:39.171Z,99341.31
2023-01-15T09:42:46.585Z,99339.84
2023-01-15T09:45:46.442Z,99343.75
2023-01-15T09:48:38.569Z,99341.13
2023-01-15T09:51:51.348Z,99348.09
2023-01-15T09:55:14.827Z,99341.00
2023-01-15T09:57:54.480Z,99342.16
2023-01-15T10:00:34.880Z,99340.53
2023-01-15T10:03:11.082Z,99341.50
2023-01-15T10:06:13.187Z,99341.66
2023-01-15T10:08:50.612Z,99344.72
2023-01-15T10:12:01.638Z,99344.41
2023-01-15T10:15:02.550Z,99332.59
2023-01-15T10:17:48.604Z,99336.13
2023-01-15T10:20:17.740Z,99329.66
2023-01-15T10:23:29.025Z,99328.34
2023-01-15T10:26:17.339Z,99328.38
2023-01-15T10:29:15.475Z,99326.09
2023-01-15T10:32:10.750Z,99328.69
2023-01-15T10:35:24.500Z,99331.75
2023-01-15T10:38:24.988Z,99328.19
2023-01-15T10:41:15.841Z,99329.47
2023-01-15T10:44:39.851Z,99330.59
2023-01-15T10:47:26.370Z,99323.66
2023-01-15T10:50:00.198Z,99333.97
2023-01-15T10:52:44.099Z,99337.06
2023-01-15T10:55:36.179Z,99334.66
2023-01-15T10:58:41.431Z,99332.06
2023-01-15T11:01:25.983Z,99345.47
2023-01-15T11:03:54.730Z,99351.94
2023-01-15T11:06:27.362Z,99337.53
2023-01-15T11:09:10.414Z,99351.13
2023-01-15T11:12:06.452Z,99354.16
2023-01-15T11:15:02.590Z,99347.56
2023-01-15T11:18:02.171Z,99348.19
2023-01-15T11:20:45.573Z,99353.03
2023-01-15T11:23:21.881Z,99345.25
2023-01-15T11:26:00.363Z,99345.78
2023-01-15T11:28:46.555Z,99351.59
2023-01-15T11:31:17.653Z,99356.44
2023-01-15T11:34:04.048Z,99346.41
2023-01-15T11:36:34.747Z,99352.25
2023-01-15T11:39:04.869Z,99341.22
2023-01-15T11:41:54.532Z,99344.91
2023-01-15T11:44:43.307Z,99344.44
2023-01-15T11:47:37.447Z,99344.13
2023-01-15T11:50:38.344Z,99339.72
2023-01-15T11:53:29.579Z,99336.69
2023-01-15T11:56:11.973Z,99328.91
2023-01-15T11:58:53.383Z,99335.56
2023-01-15T12:01:37.586Z,99338.00
2023-01-15T12:04:28.214Z,99329.69
2023-01-15T12:07:02.082Z,99337.34
2023-01-15T12:09:55.950Z,99330.53
2023-01-15T12:12:41.720Z,99330.03
2023-01-15T12:15:20.102Z,99322.91
2023-01-15T12:18:28.909Z,99334.91
2023-01-15T12:21:28.507Z,99323.44
2023-01-15T12:24:52.147Z,99345.72
2023-01-15T12:27:52.578Z,99343.44
2023-01-15T12:30:42.090Z,99345.88
2023-01-15T12:33:39.679Z,99341.84
2023-01-15T12:36:44.648Z,99338.00
2023-01-15T12:39:29.527Z,99335.34
2023-01-15T12:42:30.214Z,99334.97
2023-01-15T12:45:14.483Z,99322.03
2023-01-15T12:48:02.396Z,99331.28
2023-01-15T12:50:45.070Z,99326.91
2023-01-15T12:53:51.899Z,99321.31
2023-01-15T12:57:27.083Z,99316.75
2023-01-15T13:00:18.253Z,99321.16
2023-01-15T13:03:19.623Z,99319.56
2023-01-15T13:05:57.705Z,99323.41
2023-01-15T13:09:04.218Z,99324.72
2023-01-15T13:11:34.339Z,99320.19
2023-01-15T13:14:15.152Z,99312.75
2023-01-15T13:17:54.046Z,99309.13
2023-01-15T13:20:51.492Z,99317.88
2023-01-15T13:24:13.792Z,99312.53
2023-01-15T13:27:12.456Z,99339.16
2023-01-15T13:30:37.755Z,99328.31
2023-01-15T13:33:48.887Z,99337.06
2023-01-15T13:36:45.692Z,99325.13
2023-01-15T13:39:28.587Z,99331.56
2023-01-15T13:42:17.281Z,99331.09
2023-01-15T13:44:54.231Z,99323.63
2023-01-15T13:47:32.802Z,99314.91
2023-01-15T13:50:33.339Z,99313.91
2023-01-15T13:53:15.082Z,99331.25
2023-01-15T13:55:57.188Z,99339.06
2023-01-15T13:58:35.598Z,99344.72
2023-01-15T14:01:20.789Z,99333.72
2023-01-15T14:04:18.082Z,99333.34
2023-01-15T14:06:52.775Z,99338.25
2023-01-15T14:09:22.628Z,99341.00
2023-01-15T14:12:28.667Z,99343.75
2023-01-15T14:15:57.118Z,99345.34
2023-01-15T14:19:11.274Z,99341.34
2023-01-15T14:22:48.098Z,99363.69
2023-01-15T14:26:05.427Z,99364.00
2023-01-15T14:28:59.296Z,99379.22
2023-01-15T14:31:57.262Z,99382.75
2023-01-15T14:34:34.349Z,99390.69
2023-01-15T14:37:52.965Z,99398.59
2023-01-15T14:40:32.596Z,99408.97
2023-01-15T14:43:20.688Z,99403.16
2023-01-15T14:45:53.005Z,99405.56
2023-01-15T14:48:28.746Z,99423.22
2023-01-15T14:51:22.207Z,99417.19
2023-01-15T14:54:03.185Z,99428.63
2023-01-15T14:56:49.210Z,99430.75
2023-01-15T14:59:26.436Z,99446.59
2023-01-15T15:02:06.074Z,99455.34
2023-01-15T15:04:59.091Z,99454.34
2023-01-15T15:07:48.642Z,99455.03
2023-01-15T15:10:41.570Z,99450.78
2023-01-15T15:13:47.447Z,99447.63
2023-01-15T15:16:28.172Z,99453.28
2023-01-15T15:19:35.511Z,99439.84
2023-01-15T15:22:17.768Z,99442.09
2023-01-15T15:24:55.525Z,99446.69
2023-01-15T15:27:26.733Z,99444.72
2023-01-15T15:30:08.064Z,99441.31
2023-01-15T15:32:41.250Z,99448.38
2023-01-15T15:35:30.172Z,99446.31
2023-01-15T15:38:06.611Z,99449.28
2023-01-15T15:40:38.353Z,99444.72
2023-01-15T15:43:43.596Z,99442.56
2023-01-15T15:46:51.710Z,99450.19
2023-01-15T15:49:22.227Z,99445.63
2023-01-15T15:51:54.651Z,99439.25
2023-01-15T15:54:30.783Z,99450.94
2023-01-15T15:57:18.857Z,99440.38
2023-01-15T15:59:52.701Z,99436.13
2023-01-15T16:02:41.511Z,99439.00
2023-01-15T16:05:28.985Z,99432.50
2023-01-15T16:08:19.738Z,99433.47
2023-01-15T16:11:00.285Z,99427.66
2023-01-15T16:13:46.068Z,99432.47
2023-01-15T16:16:19.574Z,99432.75
2023-01-15T16:19:02.557Z,99428.81
2023-01-15T16:21:39.716Z,99428.16
2023-01-15T16:24:26.806Z,99431.34
2023-01-15T16:27:17.173Z,99423.47
2023-01-15T16:29:54.693Z,99432.50
2023-01-15T16:32:33.186Z,99428.78
2023-01-15T16:35:20.947Z,99425.91
2023-01-15T16:38:00.660Z,99422.75
2023-01-15T16:40:39.617Z,99433.66
2023-01-15T16:43:25.968Z,99420.03
2023-01-15T16:46:22.555Z,99424.81
2023-01-15T16:49:33.626Z,99434.16
2023-01-15T16:52:50.461Z,99440.50
2023-01-15T16:56:01.409Z,99430.34
2023-01-15T16:58:41.462Z,99436.84
2023-01-15T17:01:42.867Z,99431.78
2023-01-15T17:04:35.904Z,99434.84
2023-01-15T17:07:22.940Z,99427.81
2023-01-15T17:10:00.112Z,99420.22
2023-01-15T17:12:44.023Z,99421.88
2023-01-15T17:15:16.799Z,99429.72
2023-01-15T17:17:51.329Z,99420.38
2023-01-15T17:20:28.021Z,99419.41
2023-01-15T17:22:57.350Z,99426.28
2023-01-15T17:25:35.420Z,99419.22
2023-01-15T17:28:06.253Z,99419.19
2023-01-15T17:30:36.231Z,99420.47
2023-01-15T17:33:10.529Z,99409.50
2023-01-15T17:35:43.219Z,99409.81
2023-01-15T17:38:13.955Z,99415.88
2023-01-15T17:40:44.377Z,99419.78
2023-01-15T17:43:16.635Z,99423.78
2023-01-15T17:45:45.996Z,99432.66
2023-01-15T17:48:18.474Z,99424.91
2023-01-15T17:50:48.693Z,99417.78
2023-01-15T17:53:18.392Z,99427.03
2023-01-15T17:56:06.784Z,99434.50
2023-01-15T17:58:55.087Z,99426.69
2023-01-15T18:01:49.017Z,99434.19
2023-01-15T18:04:51.893Z,99435.16
2023-01-15T18:07:28.076Z,99429.59
2023-01-15T18:09:56.609Z,99427.78
2023-01-15T18:12:26.650Z,99441.69
2023-01-15T18:14:56.621Z,99446.44
2023-01-15T18:17:26.849Z,99426.53
2023-01-15T18:19:55.857Z,99442.00
2023-01-15T18:22:23.474Z,99452.19
2023-01-15T18:24:51.824Z,99458.63
2023-01-15T18:27:20.216Z,99444.88
2023-01-15T18:29:48.885Z,99462.47
2023-01-15T18:32:17.201Z,99464.66
2023-01-15T18:34:45.675Z,99446.38
2023-01-15T18:37:14.142Z,99467.91
2023-01-15T18:39:42.622Z,99463.09
2023-01-15T18:42:13.994Z,99455.53
2023-01-15T18:45:02.409Z,99449.53
2023-01-15T18:47:31.865Z,99445.13
2023-01-15T18:50:01.984Z,99451.25
2023-01-15T18:52:50.265Z,99453.53
2023-01-15T18:55:26.824Z,99460.53
2023-01-15T18:57:56.945Z,99460.81
2023-01-15T19:00:26.851Z,99463.28
2023-01-15T19:02:56.679Z,99454.72
2023-01-15T19:05:26.724Z,99462.06
2023-01-15T19:07:56.352Z,99458.66
2023-01-15T19:10:26.176Z,99457.28
2023-01-15T19:12:56.176Z,99462.41
2023-01-15T19:15:44.385Z,99460.16
2023-01-15T19:18:32.446Z,99460.16
2023-01-15T19:21:08.740Z,99475.16
2023-01-15T19:23:38.095Z,99467.97
2023-01-15T19:26:08.263Z,99457.47
2023-01-15T19:28:38.379Z,99463.16
2023-01-15T19:31:29.040Z,99460.41
2023-01-15T19:34:31.116Z,99467.91
2023-01-15T19:36:50.202Z,99467.19
2023-01-15T19:39:20.487Z,99460.72
2023-01-15T19:42:09.858Z,99456.41
2023-01-15T19:44:58.750Z,99467.06
2023-01-15T19:48:00.166Z,99457.03
2023-01-15T19:50:43.559Z,99474.19
2023-01-15T19:53:13.284Z,99472.09
2023-01-15T19:55:45.811Z,99468.84
2023-01-15T19:58:16.570Z,99460.72
2023-01-15T20:00:48.779Z,99468.72
2023-01-15T20:03:17.638Z,99465.84
2023-01-15T20:05:47.061Z,99457.72
2023-01-15T20:08:17.643Z,99463.22
2023-01-15T20:10:51.219Z,99470.91
2023-01-15T20:13:42.957Z,99469.34
2023-01-15T20:16:20.975Z,99466.97
2023-01-15T20:18:53.317Z,99473.72
2023-01-15T20:21:22.338Z,99487.53
2023-01-15T20:23:52.098Z,99470.59
2023-01-15T20:26:24.369Z,99466.03
2023-01-15T20:28:54.579Z,99477.59
2023-01-15T20:31:24.348Z,99473.53
2023-01-15T20:33:55.671Z,99485.28
2023-01-15T20:36:25.838Z,99466.22
2023-01-15T20:38:55.407Z,99479.28
2023-01-15T20:41:43.830Z,99470.03
2023-01-15T20:44:32.361Z,99476.09
2023-01-15T20:47:21.980Z,99471.47
2023-01-15T20:49:52.045Z,99469.34
2023-01-15T20:52:21.925Z,99467.06
2023-01-15T20:54:51.654Z,99467.22
2023-01-15T20:57:21.520Z,99461.09
2023-01-15T20:59:51.198Z,99478.38
2023-01-15T21:02:20.984Z,99477.00
2023-01-15T21:04:50.912Z,99469.09
2023-01-15T21:07:20.674Z,99466.84
2023-01-15T21:09:50.828Z,99474.03
2023-01-15T21:12:20.485Z,99476.84
2023-01-15T21:14:50.284Z,99467.66
2023-01-15T21:17:19.895Z,99470.72
2023-01-15T21:19:49.970Z,99473.22
2023-01-15T21:22:19.954Z,99478.91
2023-01-15T21:24:51.543Z,99476.44
2023-01-15T21:27:21.129Z,99479.69
2023-01-15T21:29:49.544Z,99470.34
2023-01-15T21:32:18.052Z,99469.84
2023-01-15T21:34:46.321Z,99475.16
2023-01-15T21:37:17.504Z,99468.56
2023-01-15T21:39:47.996Z,99480.25
2023-01-15T21:42:40.045Z,99479.44
2023-01-15T21:45:11.632Z,99480.38
2023-01-15T21:47:41.695Z,99484.88
2023-01-15T21:50:11.761Z,99489.88
2023-01-15T21:52:41.526Z,99488.97
2023-01-15T21:55:13.215Z,99491.38
2023-01-15T21:57:41.391Z,99491.38
2023-01-15T22:00:13.078Z,99483.34
2023-01-15T22:02:43.078Z,99481.63
2023-01-15T22:05:13.018Z,99483.63
2023-01-15T22:07:42.710Z,99481.78
2023-01-15T22:10:12.622Z,99491.25
2023-01-15T22:12:43.258Z,99485.81
2023-01-15T22:15:15.716Z,99475.22
2023-01-15T22:17:51.471Z,99481.63
2023-01-15T22:20:18.631Z,99472.31
2023-01-15T22:22:48.834Z,99473.06
2023-01-15T22:25:18.871Z,99470.88
2023-01-15T22:27:46.719Z,99480.22
2023-01-15T22:30:16.694Z,99474.44
2023-01-15T22:32:45.956Z,99477.41
2023-01-15T22:35:15.677Z,99478.63
2023-01-15T22:37:45.531Z,99474.34
2023-01-15T22:40:15.583Z,99472.66
2023-01-15T22:42:45.570Z,99484.69
2023-01-15T22:45:15.448Z,99481.34
2023-01-15T22:47:45.101Z,99470.47
2023-01-15T22:50:15.073Z,99471.50
2023-01-15T22:52:45.071Z,99481.38
2023-01-15T22:55:14.825Z,99487.56
2023-01-15T22:57:47.495Z,99472.31
2023-01-15T23:00:18.049Z,99479.50
2023-01-15T23:03:04.965Z,99470.25
2023-01-15T23:05:39.249Z,99473.06
2023-01-15T23:08:09.532Z,99472.31
2023-01-15T23:10:47.662Z,99472.06
2023-01-15T23:13:16.767Z,99461.22
2023-01-15T23:15:45.148Z,99473.41
2023-01-15T23:18:13.544Z,99473.56
2023-01-15T23:20:42.000Z,99474.34
2023-01-15T23:23:10.945Z,99469.81
2023-01-15T23:25:40.952Z,99470.19
2023-01-15T23:28:10.527Z,99478.03
2023-01-15T23:30:40.584Z,99467.38
2023-01-15T23:33:10.520Z,99469.97
2023-01-15T23:35:40.388Z,99472.56
2023-01-15T23:38:10.120Z,99471.81
2023-01-15T23:40:42.252Z,99475.25
2023-01-15T23:43:35.542Z,99481.56
2023-01-15T23:46:30.687Z,99474.06
2023-01-15T23:49:00.209Z,99470.63
2023-01-15T23:51:29.229Z,99473.69
2023-01-15T23:54:00.181Z,99474.94
2023-01-15T23:56:31.846Z,99473.53
2023-01-15T23:59:01.932Z,99476.56
